Time;durP1;ratioP1;P1;durP2;ratioP2;P2;SDS_P1;SDS_P2;PMS_P1;PMS_P2;Temp;Humidity;BMP_temperature;BMP_pressure;BME280_temperature;BME280_humidity;BME280_pressure;Samples;Min_cycle;Max_cycle;Signal;HPM_P1;HPM_P2
2021/06/27 00:00:34;;;;;;;17.38;15.50;;;;;;;21.27;63.78;101948.00;4843624;29;20022;-93
2021/06/27 00:06:41;;;;;;;17.15;15.10;;;;;;;21.28;64.09;101942.75;4843910;29;20075;-92
2021/06/27 00:09:06;;;;;;;16.63;14.40;;;;;;;21.26;63.96;101941.91;4843353;29;20394;-93
2021/06/27 00:11:32;;;;;;;18.60;14.65;;;;;;;21.26;63.88;101944.50;4843644;29;20082;-92
2021/06/27 00:13:59;;;;;;;16.50;14.70;;;;;;;21.27;63.72;101945.38;4842092;29;20026;-93
2021/06/27 00:16:28;;;;;;;15.27;13.48;;;;;;;21.26;63.69;101944.50;4842655;29;20041;-91
2021/06/27 00:18:56;;;;;;;15.95;14.25;;;;;;;21.27;63.62;101950.59;4844337;29;20041;-91
2021/06/27 00:21:22;;;;;;;16.77;14.95;;;;;;;21.29;63.83;101948.84;4842812;29;20027;-92
2021/06/27 00:23:50;;;;;;;16.50;14.35;;;;;;;21.28;63.54;101944.50;4843311;29;20094;-92
2021/06/27 00:26:25;;;;;;;17.52;14.68;;;;;;;21.26;63.64;101946.28;4844291;29;20106;-92
2021/06/27 00:28:52;;;;;;;15.10;13.23;;;;;;;21.26;64.13;101941.03;4847689;29;20477;-93
2021/06/27 00:31:38;;;;;;;16.08;14.00;;;;;;;21.27;63.94;101945.38;4846598;29;20049;-92
2021/06/27 00:34:03;;;;;;;16.25;14.50;;;;;;;21.26;63.54;101952.38;4845818;29;20056;-91
2021/06/27 00:36:32;;;;;;;16.35;14.60;;;;;;;21.27;63.54;101956.72;4844071;29;20030;-92
2021/06/27 00:45:57;;;;;;;15.63;13.93;;;;;;;21.28;63.38;101950.59;4889737;23;20084;-92
2021/06/27 00:48:22;;;;;;;15.43;13.45;;;;;;;21.27;63.40;101943.63;4867612;29;20092;-92
2021/06/27 00:50:52;;;;;;;16.52;14.45;;;;;;;21.26;63.48;101944.50;4881453;29;20030;-92
2021/06/27 00:53:17;;;;;;;17.63;14.55;;;;;;;21.26;63.51;101949.75;4881037;29;20069;-92
2021/06/27 00:55:45;;;;;;;18.30;15.40;;;;;;;21.25;63.67;101939.28;4880581;29;20037;-92
2021/06/27 00:58:11;;;;;;;17.73;14.10;;;;;;;21.24;63.52;101942.78;4862194;29;20033;-92
2021/06/27 01:00:42;;;;;;;18.75;15.32;;;;;;;21.22;63.53;101948.03;4862866;29;20066;-92
2021/06/27 01:03:24;;;;;;;17.95;15.05;;;;;;;21.22;63.60;101944.56;4876742;29;20034;-92
2021/06/27 01:05:51;;;;;;;19.13;16.13;;;;;;;21.21;63.71;101938.44;4880404;29;20032;-93
2021/06/27 01:08:18;;;;;;;16.98;15.10;;;;;;;21.22;63.61;101944.56;4863407;29;20038;-92
2021/06/27 01:10:47;;;;;;;17.92;15.98;;;;;;;21.22;63.61;101939.31;4879272;29;20049;-93
2021/06/27 01:13:15;;;;;;;18.70;15.40;;;;;;;21.20;63.58;101936.69;4902973;23;20058;-92
2021/06/27 01:15:40;;;;;;;16.38;14.65;;;;;;;21.20;63.75;101935.84;4881062;29;20026;-92
2021/06/27 01:18:06;;;;;;;17.52;14.75;;;;;;;21.22;63.74;101934.94;4881631;29;20033;-91
2021/06/27 01:20:35;;;;;;;19.08;15.05;;;;;;;21.25;63.66;101941.91;4880792;29;20025;-94
2021/06/27 01:26:25;;;;;;;17.70;15.05;;;;;;;21.20;64.17;101938.47;4880623;29;20101;-91
2021/06/27 01:28:52;;;;;;;18.42;14.98;;;;;;;21.20;63.69;101941.06;4863045;29;20036;-91
2021/06/27 01:31:18;;;;;;;18.15;15.00;;;;;;;21.20;63.85;101943.69;4863655;29;20052;-91
2021/06/27 01:37:06;;;;;;;17.65;15.57;;;;;;;21.23;63.75;101943.66;4878532;29;20045;-90
2021/06/27 01:39:35;;;;;;;17.70;14.98;;;;;;;21.21;63.81;101943.69;4879145;29;20033;-92
2021/06/27 01:42:01;;;;;;;19.20;14.68;;;;;;;21.21;63.38;101937.56;4880514;29;20038;-91
2021/06/27 01:44:29;;;;;;;17.85;14.52;;;;;;;21.19;63.66;101936.69;4878225;29;20049;-92
2021/06/27 01:46:57;;;;;;;15.93;14.27;;;;;;;21.21;63.55;101934.94;4879314;29;20032;-92
2021/06/27 01:49:23;;;;;;;16.55;14.48;;;;;;;21.21;63.62;101935.84;4878642;29;20032;-93
2021/06/27 01:51:52;;;;;;;15.90;14.30;;;;;;;21.20;63.53;101922.75;4878815;29;20049;-94
2021/06/27 01:54:20;;;;;;;17.83;15.10;;;;;;;21.20;63.22;101927.97;4863637;29;20033;-90
2021/06/27 02:00:08;;;;;;;16.42;14.73;;;;;;;21.22;63.45;101915.75;4879340;29;20508;-91
2021/06/27 02:02:35;;;;;;;17.23;14.27;;;;;;;21.21;63.36;101916.63;4879023;29;20022;-91
2021/06/27 02:05:00;;;;;;;19.08;14.77;;;;;;;21.22;63.26;101916.63;4879532;29;20499;-92
2021/06/27 02:07:39;;;;;;;17.50;15.05;;;;;;;21.20;63.32;101912.28;4863345;24;20130;-92
2021/06/27 02:10:15;;;;;;;16.13;14.43;;;;;;;21.19;63.39;101905.28;4844539;29;20074;-91
2021/06/27 02:12:43;;;;;;;19.83;15.65;;;;;;;21.20;63.39;101904.44;4845683;29;20042;-91
2021/06/27 02:15:12;;;;;;;16.88;15.00;;;;;;;21.17;63.44;101900.09;4832209;29;20030;-92
2021/06/27 02:17:53;;;;;;;16.45;13.82;;;;;;;21.20;63.59;101899.19;4863602;29;20090;-91
2021/06/27 02:20:19;;;;;;;17.20;14.65;;;;;;;21.23;63.50;101909.63;4848597;29;20090;-90
2021/06/27 02:22:46;;;;;;;16.77;14.65;;;;;;;21.22;63.92;101910.53;4850215;29;20026;-91
2021/06/27 02:25:14;;;;;;;18.48;14.35;;;;;;;21.21;63.62;101909.66;4881943;24;20684;-91
2021/06/27 02:27:39;;;;;;;17.52;14.80;;;;;;;21.19;63.42;101908.81;4863364;29;20050;-91
2021/06/27 02:30:10;;;;;;;17.05;15.13;;;;;;;21.20;63.86;101909.66;4863817;29;20133;-94
2021/06/27 02:32:37;;;;;;;16.38;14.05;;;;;;;21.22;63.59;101910.53;4880359;29;20046;-91
2021/06/27 02:39:01;;;;;;;16.90;13.85;;;;;;;21.27;63.22;101901.72;4845977;29;20062;-91
2021/06/27 02:41:30;;;;;;;;;;;;;;;21.27;63.22;101904.34;4845587;29;20030;-91
2021/06/27 02:43:55;;;;;;;18.92;15.30;;;;;;;21.22;63.26;101898.28;4857458;29;19921;-91
2021/06/27 02:46:21;;;;;;;16.70;14.90;;;;;;;21.22;63.28;101907.91;4843057;29;20463;-92
2021/06/27 02:48:48;;;;;;;16.48;14.77;;;;;;;21.24;62.85;101898.28;4859778;29;20034;-93
2021/06/27 02:51:13;;;;;;;15.25;12.98;;;;;;;21.24;63.28;101898.28;4861250;29;20014;-91
2021/06/27 02:53:39;;;;;;;14.82;13.32;;;;;;;21.25;63.36;101902.63;4863455;29;20029;-91
2021/06/27 02:56:08;;;;;;;14.82;13.20;;;;;;;21.28;62.79;101900.00;4859450;29;20041;-90
2021/06/27 02:58:48;;;;;;;16.08;14.32;;;;;;;21.28;63.11;101905.25;4842392;29;20057;-91
2021/06/27 03:01:15;;;;;;;14.60;13.05;;;;;;;21.27;63.22;101903.50;4860792;29;20026;-90
2021/06/27 03:04:01;;;;;;;15.75;13.48;;;;;;;21.30;63.07;101911.34;4860126;29;20075;-92
2021/06/27 03:06:27;;;;;;;14.73;13.23;;;;;;;21.27;62.65;101904.34;4858880;29;20018;-92
2021/06/27 03:08:52;;;;;;;15.15;13.55;;;;;;;21.30;62.99;101899.09;4859203;29;20043;-91
2021/06/27 03:11:18;;;;;;;17.17;14.13;;;;;;;21.28;62.83;101893.00;4840823;29;20047;-90
2021/06/27 03:13:44;;;;;;;17.42;14.52;;;;;;;21.27;62.61;101893.00;4825050;29;20087;-91
2021/06/27 03:16:11;;;;;;;15.90;13.98;;;;;;;21.25;62.50;101889.53;4828811;29;20076;-90
2021/06/27 03:18:38;;;;;;;16.17;14.30;;;;;;;21.27;62.77;101886.03;4842247;29;20035;-91
2021/06/27 03:21:04;;;;;;;15.07;13.48;;;;;;;21.27;62.73;101887.78;4842432;29;20555;-92
2021/06/27 03:23:30;;;;;;;15.07;12.80;;;;;;;21.27;62.58;101879.91;4828978;29;20030;-90
2021/06/27 03:25:56;;;;;;;19.58;14.93;;;;;;;21.23;62.70;101875.59;4825990;29;20062;-91
2021/06/27 03:28:22;;;;;;;15.50;13.90;;;;;;;21.24;62.65;101872.97;4842511;29;20098;-91
2021/06/27 03:30:48;;;;;;;15.55;13.95;;;;;;;21.25;62.66;101871.22;4829762;29;20030;-90
2021/06/27 03:33:14;;;;;;;16.20;14.40;;;;;;;21.23;62.25;101871.25;4843811;29;20098;-90
2021/06/27 03:35:40;;;;;;;16.65;13.82;;;;;;;21.20;62.26;101859.94;4858284;29;20049;-92
2021/06/27 03:38:17;;;;;;;14.75;13.25;;;;;;;21.22;62.48;101861.66;4861895;29;20026;-90
2021/06/27 03:40:44;;;;;;;17.65;14.55;;;;;;;21.22;62.35;101853.78;4845810;29;20067;-92
2021/06/27 03:43:09;;;;;;;15.63;13.88;;;;;;;21.23;62.59;101852.03;4848843;29;20031;-90
2021/06/27 03:45:35;;;;;;;15.40;13.80;;;;;;;21.23;62.55;101855.53;4860415;29;20063;-92
2021/06/27 03:48:01;;;;;;;15.98;14.27;;;;;;;21.23;62.33;101852.94;4845373;29;20041;-91
2021/06/27 03:50:26;;;;;;;16.70;14.32;;;;;;;21.22;62.57;101848.56;4862620;29;20993;-92
2021/06/27 03:52:52;;;;;;;15.40;13.40;;;;;;;21.25;62.63;101850.28;4848782;29;20081;-90
2021/06/27 03:55:19;;;;;;;15.23;13.48;;;;;;;21.23;62.46;101849.41;4846178;29;20113;-91
2021/06/27 03:57:51;;;;;;;15.68;14.00;;;;;;;21.24;62.36;101851.16;4895838;23;20095;-91
2021/06/27 04:03:40;;;;;;;15.55;13.90;;;;;;;21.25;62.21;101851.16;4849000;29;20053;-91
2021/06/27 04:06:07;;;;;;;15.55;14.05;;;;;;;21.24;62.16;101848.56;4875554;29;20035;-90
2021/06/27 04:08:34;;;;;;;15.25;13.55;;;;;;;21.24;61.85;101841.56;4846751;29;20050;-92
2021/06/27 04:11:00;;;;;;;15.15;13.55;;;;;;;21.27;61.97;101845.91;4846337;29;20056;-90
2021/06/27 04:13:26;;;;;;;16.73;13.65;;;;;;;21.26;62.00;101836.31;4844235;29;20054;-90
2021/06/27 04:16:06;;;;;;;15.98;14.27;;;;;;;21.29;62.17;101846.75;4846273;29;20055;-88
2021/06/27 04:18:40;;;;;;;15.65;14.07;;;;;;;21.28;61.80;101845.88;4845450;29;20030;-90
2021/06/27 04:21:08;;;;;;;17.15;15.07;;;;;;;21.29;61.73;101841.50;4842097;29;20023;-90
2021/06/27 04:23:37;;;;;;;15.77;14.15;;;;;;;21.31;61.56;101844.97;4844975;29;20030;-91
2021/06/27 04:26:02;;;;;;;15.32;12.85;;;;;;;21.32;61.58;101849.34;4845003;29;20026;-90
2021/06/27 04:28:28;;;;;;;15.32;13.73;;;;;;;21.35;61.64;101850.19;4826682;29;20080;-90
2021/06/27 04:30:55;;;;;;;14.07;12.68;;;;;;;21.36;61.67;101843.19;4841284;29;20026;-91
2021/06/27 04:33:21;;;;;;;15.77;13.88;;;;;;;21.36;61.49;101846.69;4831537;29;20026;-91
2021/06/27 04:35:46;;;;;;;15.82;14.15;;;;;;;21.36;61.20;101851.94;4839813;29;20034;-90
2021/06/27 04:38:18;;;;;;;15.63;14.02;;;;;;;21.36;61.48;101841.44;4840574;29;20034;-90
2021/06/27 04:40:43;;;;;;;16.40;14.80;;;;;;;21.36;61.35;101844.06;4830521;29;20154;-91
2021/06/27 04:43:09;;;;;;;18.95;15.70;;;;;;;21.40;61.26;101841.41;4840107;29;20027;-91
2021/06/27 04:45:40;;;;;;;18.85;15.20;;;;;;;21.43;61.38;101842.28;4826780;29;20035;-91
2021/06/27 04:48:06;;;;;;;17.10;14.82;;;;;;;21.46;60.87;101836.16;4844896;29;20093;-90
2021/06/27 04:50:32;;;;;;;21.27;19.02;;;;;;;21.51;60.88;101831.72;4842235;29;20027;-90
2021/06/27 04:52:58;;;;;;;18.80;16.20;;;;;;;21.54;60.49;101835.19;4843314;29;20030;-91
2021/06/27 04:55:23;;;;;;;23.27;20.80;;;;;;;21.55;60.18;101830.81;4842011;29;20095;-91
2021/06/27 04:57:49;;;;;;;26.27;20.55;;;;;;;21.57;59.83;101818.56;4840299;29;20479;-91
2021/06/27 05:00:17;;;;;;;26.75;22.05;;;;;;;21.62;59.79;101824.63;4840894;29;20090;-91
2021/06/27 05:02:43;;;;;;;24.90;22.30;;;;;;;21.63;59.39;101821.13;4841110;29;20031;-90
2021/06/27 05:05:09;;;;;;;30.30;25.17;;;;;;;21.62;59.34;101822.00;4838333;29;20478;-89
2021/06/27 05:07:35;;;;;;;23.08;20.55;;;;;;;21.69;59.41;101828.06;4836636;29;20137;-89
2021/06/27 05:10:00;;;;;;;26.02;23.23;;;;;;;21.68;58.90;101821.94;4836367;29;20482;-91
2021/06/27 05:12:27;;;;;;;28.88;23.77;;;;;;;21.67;59.42;101820.22;4842669;29;20094;-90
2021/06/27 05:14:53;;;;;;;27.27;23.55;;;;;;;21.72;59.15;101823.66;4846627;29;20019;-92
2021/06/27 05:17:20;;;;;;;32.10;24.92;;;;;;;21.71;58.79;101823.66;4844073;29;20054;-90
2021/06/27 05:19:45;;;;;;;28.75;24.63;;;;;;;21.72;58.84;101810.53;4842315;29;20030;-91
2021/06/27 05:22:11;;;;;;;26.92;22.60;;;;;;;21.74;58.86;101824.50;4842272;29;20030;-91
2021/06/27 05:28:38;;;;;;;23.30;20.33;;;;;;;21.74;59.11;101823.63;4884054;29;20059;-92
2021/06/27 05:31:03;;;;;;;27.08;21.50;;;;;;;21.75;58.97;101821.00;4897994;29;20045;-90
2021/06/27 05:33:29;;;;;;;25.85;21.63;;;;;;;21.80;58.71;101820.94;4880728;29;20065;-90
2021/06/27 05:35:54;;;;;;;17.48;15.68;;;;;;;21.81;59.43;101813.94;4865234;29;20052;-92
2021/06/27 05:38:20;;;;;;;18.63;16.63;;;;;;;21.83;59.87;101809.56;4866767;29;20041;-89
2021/06/27 05:40:47;;;;;;;24.02;21.13;;;;;;;21.84;59.18;101814.78;4879448;29;20109;-90
2021/06/27 05:43:12;;;;;;;29.33;22.20;;;;;;;21.81;59.20;101804.31;4896803;29;20029;-90
2021/06/27 05:45:38;;;;;;;19.20;17.20;;;;;;;21.81;59.36;101809.56;4882140;29;20477;-89
2021/06/27 05:48:04;;;;;;;25.27;22.27;;;;;;;21.85;58.63;101807.78;4880997;29;20060;-89
2021/06/27 05:50:29;;;;;;;24.73;22.02;;;;;;;21.83;59.16;101807.81;4880598;29;20047;-90
2021/06/27 05:53:01;;;;;;;17.65;15.75;;;;;;;21.77;60.48;101813.09;4883252;29;20093;-92
2021/06/27 05:55:30;;;;;;;23.20;19.20;;;;;;;21.60;61.18;101804.56;4882190;29;20033;-90
2021/06/27 05:58:05;;;;;;;27.98;24.42;;;;;;;21.49;60.88;101797.72;4848708;29;20052;-90
2021/06/27 06:04:19;;;;;;;32.72;28.00;;;;;;;21.42;60.57;101805.63;4895303;29;20044;-90
2021/06/27 06:09:20;;;;;;;34.30;27.27;;;;;;;21.38;61.28;101807.38;4812829;27;20118;-91
2021/06/27 06:11:46;;;;;;;34.67;27.55;;;;;;;21.31;60.96;101795.25;4861238;29;20053;-89
2021/06/27 06:14:12;;;;;;;36.53;27.98;;;;;;;21.30;60.79;101802.22;4860940;29;20067;-91
2021/06/27 06:16:38;;;;;;;34.25;29.20;;;;;;;21.27;60.66;101794.41;4875661;29;20039;-90
2021/06/27 06:19:03;;;;;;;35.13;29.23;;;;;;;21.26;60.84;101802.28;4877289;29;20036;-90
2021/06/27 06:21:30;;;;;;;32.28;28.77;;;;;;;21.22;60.94;101797.97;4878530;29;20037;-91
2021/06/27 06:24:03;;;;;;;33.50;27.88;;;;;;;21.26;60.75;101808.38;4895457;29;20500;-92
2021/06/27 06:26:28;;;;;;;31.75;27.52;;;;;;;21.27;61.11;101799.63;4880015;29;20098;-90
2021/06/27 06:28:54;;;;;;;35.97;29.27;;;;;;;21.29;61.11;101791.78;4882343;29;20017;-89
2021/06/27 06:31:19;;;;;;;33.15;27.48;;;;;;;21.31;60.78;101801.34;4864582;29;20037;-89
2021/06/27 06:33:50;;;;;;;32.42;27.35;;;;;;;21.29;61.41;101800.47;4878575;29;20032;-91
2021/06/27 06:49:07;;;;;;;29.33;25.50;;;;;;;21.39;61.84;101797.78;4904211;23;20054;-90
2021/06/27 06:51:53;;;;;;;30.38;24.48;;;;;;;21.40;61.56;101799.53;4956726;24;20449;-93
2021/06/27 06:54:19;;;;;;;34.25;27.85;;;;;;;21.35;61.55;101808.28;4833019;29;20079;-92
2021/06/27 06:56:57;;;;;;;30.50;26.73;;;;;;;21.36;61.48;101798.66;4821559;29;20038;-91
2021/06/27 07:03:06;;;;;;;35.30;27.67;;;;;;;21.42;61.92;101813.50;4848278;29;20041;-91
2021/06/27 07:08:53;;;;;;;30.38;26.35;;;;;;;21.44;61.50;101815.22;4850865;29;20182;-91
2021/06/27 07:11:25;;;;;;;30.45;26.02;;;;;;;21.44;62.31;101803.88;4853567;29;20045;-91
2021/06/27 07:13:52;;;;;;;31.52;26.25;;;;;;;21.47;61.13;101809.06;4892428;23;20042;-93
2021/06/27 07:16:18;;;;;;;31.05;26.80;;;;;;;21.46;61.04;101813.44;4852990;29;20519;-92
2021/06/27 07:19:02;;;;;;;30.67;26.63;;;;;;;21.48;60.87;101813.44;4875849;24;20073;-90
2021/06/27 07:21:33;;;;;;;31.75;26.05;;;;;;;21.44;60.66;101811.72;4849436;29;20045;-91
2021/06/27 08:02:29;;;;;;;27.13;22.80;;;;;;;21.45;60.73;101809.09;5278538;23;20201;-94
2021/06/27 08:05:04;;;;;;;32.08;23.77;;;;;;;21.44;60.59;101804.72;4863292;29;20060;-94
2021/06/27 08:13:35;;;;;;;26.83;22.13;;;;;;;21.46;60.70;101796.88;4942072;23;20074;-95
2021/06/27 08:19:33;;;;;;;28.20;23.15;;;;;;;21.47;61.16;101809.97;4844018;29;20050;-95
2021/06/27 08:42:15;;;;;;;23.15;20.45;;;;;;;21.56;60.86;101806.38;4876789;29;20082;-90
2021/06/27 08:59:57;;;;;;;23.83;20.63;;;;;;;21.69;60.44;101807.13;4940859;23;20121;-93
2021/06/27 10:38:49;;;;;;;19.13;15.60;;;;;;;21.93;61.09;101740.44;5779994;23;20516;-91
2021/06/27 10:41:15;;;;;;;18.83;16.35;;;;;;;21.94;61.06;101743.00;4864814;29;20061;-92
2021/06/27 10:44:02;;;;;;;24.60;15.27;;;;;;;21.93;60.76;101743.91;4860208;29;20052;-92
2021/06/27 10:46:39;;;;;;;20.63;15.77;;;;;;;21.95;61.08;101741.28;4858108;29;20051;-92
2021/06/27 10:49:08;;;;;;;19.33;16.50;;;;;;;22.01;60.90;101740.31;4858579;29;20026;-92
2021/06/27 10:52:20;;;;;;;20.48;14.63;;;;;;;22.07;60.48;101748.09;4843850;29;20037;-92
2021/06/27 10:55:23;;;;;;;16.92;13.48;;;;;;;22.09;60.42;101738.47;4859856;29;20073;-92
2021/06/27 10:57:59;;;;;;;15.07;13.05;;;;;;;22.11;60.26;101734.91;4879062;29;20033;-92
2021/06/27 11:00:27;;;;;;;17.40;12.95;;;;;;;22.12;60.12;101730.53;4870356;29;20033;-93
2021/06/27 11:02:54;;;;;;;15.25;12.25;;;;;;;22.12;60.25;101730.53;4856752;29;20053;-93
2021/06/27 11:05:25;;;;;;;17.35;12.43;;;;;;;22.13;60.44;101738.38;4874154;29;20033;-94
2021/06/27 11:07:51;;;;;;;20.70;14.80;;;;;;;22.21;60.25;101746.16;4858083;29;20097;-90
2021/06/27 11:10:20;;;;;;;18.88;12.27;;;;;;;22.17;60.20;101726.97;4853309;29;20065;-92
2021/06/27 11:12:55;;;;;;;19.80;12.80;;;;;;;22.15;60.30;101734.00;4851273;29;20033;-93
2021/06/27 11:15:21;;;;;;;19.17;12.45;;;;;;;22.14;60.11;101734.00;4850032;29;20029;-94
2021/06/27 11:17:54;;;;;;;19.30;12.77;;;;;;;22.14;60.59;101734.00;4849743;29;20037;-93
2021/06/27 11:20:20;;;;;;;;;;;;;;;22.13;60.44;101733.16;4851073;29;20374;-92
2021/06/27 11:22:57;;;;;;;20.92;14.18;;;;;;;22.26;60.05;101720.75;4851190;29;19927;-91
2021/06/27 11:25:41;;;;;;;18.52;12.00;;;;;;;22.19;59.91;101724.34;4848807;29;20029;-93
2021/06/27 11:28:18;;;;;;;17.50;12.57;;;;;;;22.21;60.18;101717.31;4849869;29;20045;-93
2021/06/27 11:30:53;;;;;;;17.60;12.32;;;;;;;22.19;59.95;101724.34;4850364;29;20029;-92
2021/06/27 11:33:22;;;;;;;18.67;14.63;;;;;;;22.29;59.63;101717.22;4866873;29;20026;-92
2021/06/27 11:35:52;;;;;;;18.20;13.50;;;;;;;22.24;60.07;101709.44;4848440;29;20030;-91
2021/06/27 11:38:38;;;;;;;14.35;10.93;;;;;;;22.19;59.87;101713.84;4848368;29;20032;-93
2021/06/27 11:41:09;;;;;;;14.02;10.95;;;;;;;22.18;59.92;101707.72;4847886;29;20520;-92
2021/06/27 11:44:08;;;;;;;13.60;11.10;;;;;;;22.22;60.06;101710.31;4847953;29;20093;-92
2021/06/27 11:46:39;;;;;;;12.32;10.32;;;;;;;22.21;60.13;101709.47;4843454;29;20041;-93
2021/06/27 11:49:12;;;;;;;13.10;11.13;;;;;;;22.21;60.24;101705.94;4847698;29;20469;-92
2021/06/27 11:51:40;;;;;;;15.65;12.73;;;;;;;22.28;59.73;101710.25;4866079;29;20025;-92
2021/06/27 11:54:06;;;;;;;12.98;10.75;;;;;;;22.26;59.76;101712.91;4848861;29;20034;-94
2021/06/27 11:56:58;;;;;;;12.43;9.43;;;;;;;22.26;59.66;101714.66;4848139;29;20035;-92
2021/06/27 11:59:29;;;;;;;11.73;9.98;;;;;;;22.28;59.83;101697.16;4849225;29;20029;-93
2021/06/27 12:02:18;;;;;;;12.98;9.38;;;;;;;22.26;59.89;101702.41;4848415;29;20028;-92
2021/06/27 12:04:47;;;;;;;11.80;8.82;;;;;;;22.21;59.88;101688.47;4848851;29;20453;-93
2021/06/27 12:10:21;;;;;;;11.02;8.93;;;;;;;22.21;60.11;101695.47;4858146;23;20062;-93
2021/06/27 12:13:09;;;;;;;9.35;8.40;;;;;;;22.21;60.27;101688.47;4845531;29;20482;-93
2021/06/27 12:15:47;;;;;;;9.65;8.43;;;;;;;22.19;60.33;101692.88;4844895;29;20034;-92
2021/06/27 12:18:22;;;;;;;10.30;8.80;;;;;;;22.23;60.05;101688.47;4844736;29;20030;-92
2021/06/27 12:21:13;;;;;;;10.95;8.88;;;;;;;22.23;59.82;101685.84;4845480;29;20042;-91
2021/06/27 12:23:44;;;;;;;15.52;10.88;;;;;;;22.35;59.16;101683.91;4848156;29;20026;-92
2021/06/27 12:26:15;;;;;;;12.02;8.25;;;;;;;22.34;59.65;101681.28;4859820;29;20101;-92
2021/06/27 12:28:50;;;;;;;10.40;9.13;;;;;;;22.30;59.72;101685.75;4863806;29;20030;-92
2021/06/27 12:31:32;;;;;;;9.77;8.75;;;;;;;22.30;59.60;101680.50;4854553;29;20041;-90
2021/06/27 12:34:08;;;;;;;9.45;8.45;;;;;;;22.30;59.69;101679.63;4845553;29;20037;-92
2021/06/27 12:36:49;;;;;;;13.90;10.93;;;;;;;22.34;59.37;101674.31;4830160;29;20038;-92
2021/06/27 12:39:21;;;;;;;9.82;7.95;;;;;;;22.31;59.50;101674.34;4844963;29;20054;-93
2021/06/27 12:41:47;;;;;;;8.50;7.65;;;;;;;22.30;59.18;101664.75;4844841;29;20533;-93
2021/06/27 12:44:19;;;;;;;9.90;8.38;;;;;;;22.33;59.00;101671.72;4844907;29;20171;-93
2021/06/27 12:46:53;;;;;;;14.25;8.35;;;;;;;22.33;59.20;101662.06;4845458;29;20022;-92
2021/06/27 12:49:24;;;;;;;10.57;7.90;;;;;;;22.37;59.01;101663.75;4846193;29;20030;-91
2021/06/27 12:52:08;;;;;;;9.20;7.53;;;;;;;22.34;59.40;101657.69;4850117;29;20505;-94
2021/06/27 12:54:36;;;;;;;12.85;8.40;;;;;;;22.34;58.88;101655.06;4851224;29;20025;-89
2021/06/27 12:57:16;;;;;;;8.27;7.40;;;;;;;22.35;59.20;101649.81;4847220;29;20488;-93
2021/06/27 12:59:51;;;;;;;9.23;7.30;;;;;;;22.37;58.82;101657.66;4844052;29;20034;-93
2021/06/27 13:02:32;;;;;;;10.70;8.27;;;;;;;22.42;59.14;101652.34;4844122;29;20030;-92
2021/06/27 13:05:06;;;;;;;8.18;7.30;;;;;;;22.40;59.13;101657.59;4844251;29;20034;-93
2021/06/27 13:07:41;;;;;;;8.20;7.40;;;;;;;22.41;58.86;101653.22;4843896;29;20090;-91
2021/06/27 13:10:20;;;;;;;11.50;9.63;;;;;;;22.57;58.61;101649.44;4843901;29;20054;-93
2021/06/27 13:12:52;;;;;;;11.00;9.15;;;;;;;22.59;57.96;101645.03;4844093;29;20041;-93
2021/06/27 13:15:22;;;;;;;9.60;8.63;;;;;;;22.51;58.21;101644.31;4845561;29;20109;-93
2021/06/27 13:17:52;;;;;;;12.23;8.40;;;;;;;22.48;58.42;101642.59;4844585;29;20038;-94
2021/06/27 13:20:26;;;;;;;7.53;6.82;;;;;;;22.46;58.46;101639.13;4846162;29;20030;-93
2021/06/27 13:23:05;;;;;;;8.05;7.10;;;;;;;22.41;58.42;101630.50;4845768;29;20087;-94
2021/06/27 13:25:37;;;;;;;8.15;7.10;;;;;;;22.41;58.58;101633.13;4845345;29;20093;-94
2021/06/27 13:28:04;;;;;;;8.98;7.35;;;;;;;22.44;58.32;101630.44;4846953;29;20038;-94
2021/06/27 13:30:30;;;;;;;8.82;7.90;;;;;;;22.51;58.50;101633.81;4846332;29;20033;-95
2021/06/27 13:33:07;;;;;;;8.50;7.60;;;;;;;22.47;58.72;101630.41;4845043;29;20186;-91
2021/06/27 13:35:39;;;;;;;7.43;6.72;;;;;;;22.46;58.46;101623.41;4845574;29;20030;-93
2021/06/27 13:38:08;;;;;;;8.00;7.20;;;;;;;22.48;58.83;101619.00;4843487;29;20033;-92
2021/06/27 13:40:38;;;;;;;8.65;7.25;;;;;;;22.49;58.23;101625.09;4843336;29;20082;-93
2021/06/27 13:43:04;;;;;;;7.85;6.90;;;;;;;22.50;58.34;101611.97;4842987;29;20026;-92
2021/06/27 13:45:30;;;;;;;9.07;8.18;;;;;;;22.62;57.76;101620.50;4843197;29;20037;-92
2021/06/27 13:47:56;;;;;;;10.48;7.25;;;;;;;22.58;58.12;101610.06;4843891;29;20030;-91
2021/06/27 13:50:28;;;;;;;8.77;7.68;;;;;;;22.57;58.03;101613.56;4843838;29;20034;-91
2021/06/27 13:52:54;;;;;;;9.52;7.18;;;;;;;22.55;58.16;101622.38;4844018;29;20059;-91
2021/06/27 13:55:21;;;;;;;8.55;7.68;;;;;;;22.57;57.91;101613.56;4844792;29;20094;-93
2021/06/27 13:57:47;;;;;;;8.82;7.93;;;;;;;22.66;57.74;101609.91;4843698;29;20061;-92
2021/06/27 14:00:14;;;;;;;8.80;7.80;;;;;;;22.63;58.22;101603.88;4843253;29;20033;-93
2021/06/27 14:02:40;;;;;;;9.05;8.07;;;;;;;22.68;57.63;101600.25;4843136;29;20094;-94
2021/06/27 14:05:17;;;;;;;8.55;7.75;;;;;;;22.67;57.93;101611.66;4844597;29;20041;-92
2021/06/27 14:07:44;;;;;;;11.00;8.02;;;;;;;22.68;57.67;101589.78;4853249;29;20064;-92
2021/06/27 14:10:12;;;;;;;8.60;7.40;;;;;;;22.63;57.75;101586.38;4839996;29;20541;-93
2021/06/27 14:12:38;;;;;;;10.32;8.43;;;;;;;22.78;57.26;101596.59;4857598;29;20030;-93
2021/06/27 14:15:06;;;;;;;11.15;8.10;;;;;;;22.73;57.50;101592.31;4863960;29;20042;-92
2021/06/27 14:17:34;;;;;;;8.73;7.82;;;;;;;22.67;58.08;101576.66;4864234;29;20128;-89
2021/06/27 14:20:00;;;;;;;9.52;8.10;;;;;;;22.80;57.44;101576.41;4859322;29;20068;-90
2021/06/27 14:22:25;;;;;;;8.35;7.55;;;;;;;22.79;57.52;101579.06;4856169;29;20117;-91
2021/06/27 14:24:51;;;;;;;8.00;7.20;;;;;;;22.71;57.56;101584.47;4850747;29;20022;-92
2021/06/27 14:27:17;;;;;;;9.15;6.97;;;;;;;22.68;57.54;101571.41;4849545;29;20537;-91
2021/06/27 14:29:42;;;;;;;9.35;8.18;;;;;;;22.79;57.57;101566.81;4847899;29;20040;-90
2021/06/27 14:32:09;;;;;;;7.95;7.00;;;;;;;22.76;57.56;101561.63;4847993;29;20121;-91
2021/06/27 14:34:36;;;;;;;7.78;7.07;;;;;;;22.75;57.66;101559.88;4847562;29;20029;-93
2021/06/27 14:37:03;;;;;;;7.75;7.00;;;;;;;22.71;57.67;101555.63;4848413;29;20033;-90
2021/06/27 14:39:29;;;;;;;7.30;6.60;;;;;;;22.76;57.64;101564.25;4847649;29;20044;-93
2021/06/27 14:41:55;;;;;;;7.78;7.07;;;;;;;22.88;57.30;101557.88;4847873;29;20082;-93
2021/06/27 14:44:21;;;;;;;7.95;7.25;;;;;;;22.78;57.46;101545.88;4847691;29;20424;-91
2021/06/27 14:46:48;;;;;;;8.10;7.30;;;;;;;22.76;57.44;101545.03;4847288;29;20192;-93
2021/06/27 14:49:14;;;;;;;8.02;7.10;;;;;;;22.79;57.28;101547.59;4833510;29;20042;-92
2021/06/27 14:51:40;;;;;;;9.48;7.47;;;;;;;22.85;57.38;101549.22;4849990;29;20061;-93
2021/06/27 14:54:06;;;;;;;8.60;7.07;;;;;;;22.80;57.04;101550.19;4850741;29;20032;-91
2021/06/27 14:56:42;;;;;;;8.02;7.22;;;;;;;22.89;57.01;101543.03;4835013;29;20405;-92
2021/06/27 14:59:07;;;;;;;7.85;7.05;;;;;;;22.84;56.91;101537.00;4856921;29;20030;-89
2021/06/27 15:01:33;;;;;;;7.05;6.35;;;;;;;22.80;57.13;101534.44;4864772;29;20016;-92
2021/06/27 15:04:00;;;;;;;8.77;7.13;;;;;;;22.76;57.98;101540.63;4865727;29;20022;-90
2021/06/27 15:06:26;;;;;;;7.85;6.40;;;;;;;22.73;58.07;101530.22;4864346;29;20033;-93
2021/06/27 15:08:52;;;;;;;10.68;6.80;;;;;;;22.70;58.24;101530.25;4839674;29;20088;-93
2021/06/27 15:11:18;;;;;;;8.75;6.40;;;;;;;22.68;58.17;101529.44;4852564;29;20029;-92
2021/06/27 15:13:49;;;;;;;9.60;7.10;;;;;;;22.70;57.90;101522.41;4853518;29;20093;-91
2021/06/27 15:16:14;;;;;;;8.15;7.35;;;;;;;22.68;58.30;101525.94;4857887;29;20392;-92
2021/06/27 15:18:41;;;;;;;7.50;6.80;;;;;;;22.69;58.21;101523.31;4826748;29;20057;-94
2021/06/27 15:21:07;;;;;;;7.93;6.95;;;;;;;22.65;58.23;101519.00;4844451;29;20102;-91
2021/06/27 15:23:32;;;;;;;8.52;7.20;;;;;;;22.65;58.06;101511.13;4840771;29;20334;-93
2021/06/27 15:25:58;;;;;;;9.73;7.65;;;;;;;22.67;58.20;101514.59;4852208;29;20358;-91